createdAt,value
2022-07-29T00:01:03.019Z,16.55
2022-07-29T00:03:29.509Z,16.48
2022-07-29T00:05:56.232Z,16.19
2022-07-29T00:08:22.684Z,16.08
2022-07-29T00:10:50.264Z,15.95
2022-07-29T00:13:16.726Z,16.08
2022-07-29T00:15:43.192Z,15.99
2022-07-29T00:18:09.664Z,15.85
2022-07-29T00:20:36.172Z,15.89
2022-07-29T00:23:02.640Z,16.00
2022-07-29T00:25:29.131Z,16.02
2022-07-29T00:27:55.613Z,16.12
2022-07-29T00:30:22.112Z,16.13
2022-07-29T00:32:48.592Z,16.19
2022-07-29T00:35:33.763Z,16.21
2022-07-29T00:38:00.239Z,16.11
2022-07-29T00:40:28.561Z,16.15
2022-07-29T00:42:55.059Z,15.92
2022-07-29T00:45:22.858Z,15.83
2022-07-29T00:47:50.429Z,15.96
2022-07-29T00:50:16.901Z,15.88
2022-07-29T00:52:43.483Z,15.78
2022-07-29T00:55:14.699Z,15.68
2022-07-29T00:57:41.803Z,15.52
2022-07-29T01:00:10.522Z,15.53
2022-07-29T01:02:37.027Z,15.68
2022-07-29T01:05:04.641Z,15.66
2022-07-29T01:07:31.170Z,15.59
2022-07-29T01:09:57.802Z,15.67
2022-07-29T01:12:27.855Z,15.68
2022-07-29T01:14:54.606Z,15.73
2022-07-29T01:17:27.325Z,15.82
2022-07-29T01:20:07.286Z,15.79
2022-07-29T01:23:02.890Z,15.75
2022-07-29T01:26:06.563Z,15.69
2022-07-29T01:28:57.882Z,15.64
2022-07-29T01:32:02.862Z,15.68
2022-07-29T01:34:55.675Z,15.61
2022-07-29T01:37:28.931Z,15.54
2022-07-29T01:39:57.299Z,15.56
2022-07-29T01:42:29.007Z,15.56
2022-07-29T01:45:03.212Z,15.52
2022-07-29T01:47:35.790Z,15.51
2022-07-29T01:50:02.464Z,15.51
2022-07-29T01:52:33.357Z,15.50
2022-07-29T01:55:00.343Z,15.64
2022-07-29T01:57:28.481Z,15.64
2022-07-29T01:59:54.969Z,15.65
2022-07-29T02:02:21.464Z,15.60
2022-07-29T02:04:49.513Z,15.66
2022-07-29T02:07:18.314Z,15.53
2022-07-29T02:09:44.800Z,15.41
2022-07-29T02:12:11.291Z,15.41
2022-07-29T02:14:49.023Z,15.33
2022-07-29T02:17:16.424Z,15.23
2022-07-29T02:19:42.933Z,15.20
2022-07-29T02:22:09.745Z,15.19
2022-07-29T02:24:37.054Z,15.18
2022-07-29T02:27:03.595Z,15.22
2022-07-29T02:29:30.134Z,15.15
2022-07-29T02:31:56.670Z,15.21
2022-07-29T02:34:23.189Z,15.22
2022-07-29T02:36:49.730Z,15.20
2022-07-29T02:39:16.305Z,15.17
2022-07-29T02:41:48.853Z,15.08
2022-07-29T02:44:17.249Z,14.93
2022-07-29T02:47:18.470Z,14.85
2022-07-29T02:50:09.450Z,15.05
2022-07-29T02:52:41.996Z,14.99
2022-07-29T02:55:08.347Z,15.01
2022-07-29T02:57:54.664Z,15.08
2022-07-29T03:00:21.741Z,15.13
2022-07-29T03:02:51.535Z,14.92
2022-07-29T03:05:19.465Z,14.84
2022-07-29T03:07:53.872Z,14.75
2022-07-29T03:10:20.543Z,14.73
2022-07-29T03:12:47.040Z,14.63
2022-07-29T03:15:13.541Z,14.61
2022-07-29T03:17:40.080Z,14.69
2022-07-29T03:20:09.096Z,14.77
2022-07-29T03:22:44.306Z,14.84
2022-07-29T03:25:11.949Z,14.81
2022-07-29T03:27:38.457Z,14.88
2022-07-29T03:30:08.892Z,14.80
2022-07-29T03:32:35.789Z,14.76
2022-07-29T03:35:02.338Z,14.77
2022-07-29T03:37:28.891Z,14.73
2022-07-29T03:39:56.216Z,14.73
2022-07-29T03:42:24.424Z,14.75
2022-07-29T03:44:50.906Z,14.85
2022-07-29T03:47:18.665Z,14.68
2022-07-29T03:49:48.075Z,14.78
2022-07-29T03:52:14.670Z,14.68
2022-07-29T03:54:41.147Z,14.76
2022-07-29T03:57:07.689Z,14.69
2022-07-29T03:59:34.935Z,14.60
2022-07-29T04:02:03.131Z,14.57
2022-07-29T04:04:29.711Z,14.81
2022-07-29T04:06:56.215Z,14.72
2022-07-29T04:09:22.782Z,14.72
2022-07-29T04:12:01.795Z,14.94
2022-07-29T04:14:32.319Z,14.92
2022-07-29T04:16:58.812Z,15.05
2022-07-29T04:19:25.306Z,15.05
2022-07-29T04:21:52.278Z,15.09
2022-07-29T04:24:19.190Z,15.09
2022-07-29T04:26:49.093Z,15.25
2022-07-29T04:29:15.616Z,15.38
2022-07-29T04:31:42.630Z,15.41
2022-07-29T04:34:10.003Z,15.39
2022-07-29T04:36:36.518Z,15.47
2022-07-29T04:39:03.521Z,15.51
2022-07-29T04:41:32.794Z,15.48
2022-07-29T04:44:01.960Z,15.54
2022-07-29T04:46:28.722Z,15.68
2022-07-29T04:48:55.330Z,15.77
2022-07-29T04:51:21.900Z,15.76
2022-07-29T04:53:48.783Z,15.76
2022-07-29T04:56:15.296Z,15.69
2022-07-29T04:58:41.817Z,15.76
2022-07-29T05:01:08.393Z,15.90
2022-07-29T05:03:34.908Z,16.03
2022-07-29T05:06:01.416Z,16.19
2022-07-29T05:08:27.909Z,16.35
2022-07-29T05:10:54.426Z,16.47
2022-07-29T05:13:20.910Z,16.57
2022-07-29T05:15:47.474Z,16.68
2022-07-29T05:18:14.026Z,16.58
2022-07-29T05:20:40.571Z,16.60
2022-07-29T05:23:07.084Z,16.54
2022-07-29T05:25:43.240Z,16.58
2022-07-29T05:28:11.279Z,16.67
2022-07-29T05:30:37.927Z,16.71
2022-07-29T05:33:04.475Z,16.78
2022-07-29T05:35:31.016Z,16.68
2022-07-29T05:37:57.498Z,16.79
2022-07-29T05:40:23.977Z,16.66
2022-07-29T05:42:50.471Z,16.62
2022-07-29T05:45:16.961Z,16.68
2022-07-29T05:47:43.483Z,16.79
2022-07-29T05:50:10.091Z,16.75
2022-07-29T05:52:36.588Z,16.64
2022-07-29T05:55:05.239Z,16.77
2022-07-29T05:57:31.957Z,16.77
2022-07-29T05:59:58.448Z,16.80
2022-07-29T06:02:25.416Z,16.83
2022-07-29T06:04:51.982Z,16.82
2022-07-29T06:07:18.888Z,16.75
2022-07-29T06:09:45.376Z,16.77
2022-07-29T06:12:11.883Z,16.86
2022-07-29T06:14:39.152Z,16.85
2022-07-29T06:17:06.582Z,16.83
2022-07-29T06:19:35.257Z,16.73
2022-07-29T06:22:01.768Z,16.70
2022-07-29T06:24:28.280Z,16.81
2022-07-29T06:26:54.844Z,16.83
2022-07-29T06:29:21.328Z,16.81
2022-07-29T06:31:47.891Z,16.83
2022-07-29T06:34:14.758Z,16.82
2022-07-29T06:36:41.844Z,16.84
2022-07-29T06:39:08.530Z,16.87
2022-07-29T06:41:35.060Z,16.95
2022-07-29T06:44:01.554Z,16.94
2022-07-29T06:46:28.646Z,16.96
2022-07-29T06:48:55.510Z,17.03
2022-07-29T06:51:23.171Z,17.22
2022-07-29T06:54:00.581Z,17.18
2022-07-29T06:56:39.016Z,17.14
2022-07-29T06:59:07.107Z,17.18
2022-07-29T07:01:33.697Z,17.20
2022-07-29T07:04:00.239Z,17.29
2022-07-29T07:06:26.801Z,17.41
2022-07-29T07:08:53.307Z,17.47
2022-07-29T07:11:19.844Z,17.45
2022-07-29T07:13:46.328Z,17.54
2022-07-29T07:16:12.866Z,17.59
2022-07-29T07:18:39.405Z,17.66
2022-07-29T07:21:06.650Z,17.84
2022-07-29T07:23:33.147Z,17.82
2022-07-29T07:25:59.651Z,17.85
2022-07-29T07:28:26.135Z,17.90
2022-07-29T07:30:53.164Z,17.91
2022-07-29T07:33:19.756Z,18.01
2022-07-29T07:35:46.439Z,17.98
2022-07-29T07:38:12.939Z,18.07
2022-07-29T07:40:39.472Z,18.23
2022-07-29T07:43:05.954Z,18.13
2022-07-29T07:45:33.953Z,18.26
2022-07-29T07:48:00.746Z,18.21
2022-07-29T07:50:27.282Z,18.17
2022-07-29T07:52:55.904Z,18.06
2022-07-29T07:55:22.474Z,18.06
2022-07-29T07:57:48.965Z,18.07
2022-07-29T08:00:15.807Z,18.10
2022-07-29T08:02:43.841Z,18.07
2022-07-29T08:05:12.690Z,18.04
2022-07-29T08:07:39.674Z,18.06
2022-07-29T08:10:06.390Z,18.02
2022-07-29T08:12:32.903Z,18.18
2022-07-29T08:14:59.498Z,18.17
2022-07-29T08:17:26.245Z,18.17
2022-07-29T08:19:52.770Z,18.29
2022-07-29T08:22:19.277Z,18.49
2022-07-29T08:24:53.223Z,18.69
2022-07-29T08:27:42.541Z,18.90
2022-07-29T08:30:08.008Z,18.98
2022-07-29T08:32:52.769Z,19.10
2022-07-29T08:35:20.856Z,19.16
2022-07-29T08:37:47.646Z,19.32
2022-07-29T08:40:15.098Z,19.56
2022-07-29T08:42:41.907Z,19.47
2022-07-29T08:45:08.885Z,19.49
2022-07-29T08:47:39.491Z,19.61
2022-07-29T08:50:09.809Z,19.66
2022-07-29T08:52:40.709Z,19.66
2022-07-29T08:55:09.951Z,19.67
2022-07-29T08:57:37.211Z,19.76
2022-07-29T09:00:08.112Z,19.74
2022-07-29T09:02:41.168Z,19.77
2022-07-29T09:05:08.031Z,19.74
2022-07-29T09:07:35.239Z,19.50
2022-07-29T09:10:02.377Z,19.57
2022-07-29T09:12:32.724Z,19.64
2022-07-29T09:15:01.326Z,19.60
2022-07-29T09:17:54.038Z,19.62
2022-07-29T09:20:23.174Z,19.47
2022-07-29T09:22:50.507Z,19.31
2022-07-29T09:25:36.124Z,19.38
2022-07-29T09:28:17.362Z,19.35
2022-07-29T09:30:56.478Z,19.36
2022-07-29T09:33:23.562Z,19.33
2022-07-29T09:36:06.308Z,19.39
2022-07-29T09:38:37.298Z,19.65
2022-07-29T09:41:05.946Z,19.72
2022-07-29T09:43:33.053Z,19.82
2022-07-29T09:46:12.993Z,19.77
2022-07-29T09:48:39.618Z,19.94
2022-07-29T09:51:07.411Z,20.41
2022-07-29T09:53:35.304Z,21.39
2022-07-29T09:56:01.863Z,21.98
2022-07-29T09:58:28.445Z,22.38
2022-07-29T10:00:55.906Z,22.69
2022-07-29T10:03:22.638Z,22.70
2022-07-29T10:06:09.265Z,22.58
2022-07-29T10:08:35.963Z,22.35
2022-07-29T10:11:13.272Z,22.07
2022-07-29T10:13:40.324Z,22.01
2022-07-29T10:16:06.994Z,21.76
2022-07-29T10:18:33.629Z,21.53
2022-07-29T10:21:02.130Z,21.19
2022-07-29T10:23:29.351Z,20.90
2022-07-29T10:26:13.172Z,20.47
2022-07-29T10:28:39.650Z,20.07
2022-07-29T10:31:07.419Z,19.94
2022-07-29T10:33:39.985Z,19.62
2022-07-29T10:36:06.437Z,19.62
2022-07-29T10:39:11.410Z,19.49
2022-07-29T10:41:56.195Z,19.40
2022-07-29T10:44:23.967Z,19.42
2022-07-29T10:46:51.464Z,19.70
2022-07-29T10:49:25.105Z,19.66
2022-07-29T10:51:59.225Z,20.06
2022-07-29T10:54:43.707Z,20.56
2022-07-29T10:57:53.593Z,20.91
2022-07-29T11:00:17.004Z,21.08
2022-07-29T11:02:45.345Z,20.86
2022-07-29T11:05:13.287Z,20.60
2022-07-29T11:07:45.911Z,20.47
2022-07-29T11:10:12.951Z,20.35
2022-07-29T11:12:43.651Z,20.47
2022-07-29T11:15:13.573Z,20.87
2022-07-29T11:17:55.396Z,21.08
2022-07-29T11:21:00.654Z,21.11
2022-07-29T11:23:33.344Z,20.83
2022-07-29T11:26:26.151Z,20.70
2022-07-29T11:28:56.922Z,20.72
2022-07-29T11:31:33.975Z,20.77
2022-07-29T11:34:22.954Z,21.03
2022-07-29T11:37:13.601Z,21.07
2022-07-29T11:39:41.022Z,21.04
2022-07-29T11:42:32.079Z,21.05
2022-07-29T11:45:44.360Z,21.42
2022-07-29T11:47:55.108Z,21.65
2022-07-29T11:50:29.978Z,21.73
2022-07-29T11:52:56.764Z,21.51
2022-07-29T11:55:23.914Z,21.85
2022-07-29T12:00:48.935Z,22.61
2022-07-29T12:03:35.546Z,23.23
2022-07-29T12:06:03.268Z,23.75
2022-07-29T12:08:29.998Z,23.88
2022-07-29T12:10:56.749Z,23.79
2022-07-29T12:13:37.169Z,23.72
2022-07-29T12:16:04.934Z,23.49
2022-07-29T12:18:31.899Z,24.28
2022-07-29T12:21:04.608Z,25.14
2022-07-29T12:23:35.010Z,24.99
2022-07-29T12:26:04.384Z,24.72
2022-07-29T12:28:30.939Z,24.84
2022-07-29T12:30:57.491Z,25.26
2022-07-29T12:33:31.120Z,24.99
2022-07-29T12:36:17.157Z,24.87
2022-07-29T12:38:44.426Z,25.07
2022-07-29T12:41:10.933Z,24.73
2022-07-29T12:43:37.447Z,24.96
2022-07-29T12:46:14.205Z,25.49
2022-07-29T12:48:41.787Z,26.15
2022-07-29T12:51:09.690Z,26.38
2022-07-29T12:53:39.058Z,26.77
2022-07-29T12:56:20.664Z,27.29
2022-07-29T12:58:52.811Z,27.14
2022-07-29T13:01:21.054Z,27.56
2022-07-29T13:03:59.769Z,27.53
2022-07-29T13:06:37.028Z,27.30
2022-07-29T13:09:14.473Z,26.99
2022-07-29T13:11:46.538Z,26.64
2022-07-29T13:14:35.731Z,26.55
2022-07-29T13:17:11.086Z,26.63
2022-07-29T13:19:41.804Z,26.50
2022-07-29T13:22:09.612Z,26.49
2022-07-29T13:25:08.698Z,26.51
2022-07-29T13:27:37.394Z,25.94
2022-07-29T13:30:05.956Z,26.17
2022-07-29T13:32:32.624Z,26.23
2022-07-29T13:35:00.376Z,25.58
2022-07-29T13:37:27.297Z,25.73
2022-07-29T13:39:55.076Z,25.42
2022-07-29T13:42:21.699Z,25.72
2022-07-29T13:44:49.603Z,25.65
2022-07-29T13:47:17.120Z,25.46
2022-07-29T13:49:43.670Z,25.53
2022-07-29T13:52:10.158Z,25.66
2022-07-29T13:54:42.296Z,25.47
2022-07-29T13:57:09.326Z,25.42
2022-07-29T13:59:35.842Z,25.58
2022-07-29T14:02:02.440Z,25.66
2022-07-29T14:04:29.022Z,25.79
2022-07-29T14:06:55.602Z,25.69
2022-07-29T14:09:22.122Z,25.67
2022-07-29T14:11:50.626Z,25.77
2022-07-29T14:14:17.240Z,25.99
2022-07-29T14:16:49.225Z,25.96
2022-07-29T14:19:18.753Z,26.27
2022-07-29T14:21:45.840Z,27.11
2022-07-29T14:24:18.005Z,27.85
2022-07-29T14:26:47.968Z,28.68
2022-07-29T14:29:14.558Z,28.28
2022-07-29T14:31:41.171Z,27.80
2022-07-29T14:34:07.765Z,27.83
2022-07-29T14:36:34.290Z,27.74
2022-07-29T14:39:00.831Z,27.52
2022-07-29T14:41:29.130Z,27.03
2022-07-29T14:43:55.739Z,26.48
2022-07-29T14:46:22.284Z,26.20
2022-07-29T14:48:48.910Z,26.23
2022-07-29T14:51:15.481Z,25.83
2022-07-29T14:53:42.054Z,25.95
2022-07-29T14:56:34.334Z,25.74
2022-07-29T14:58:55.050Z,25.87
2022-07-29T15:01:21.750Z,25.88
2022-07-29T15:03:48.393Z,26.07
2022-07-29T15:06:14.900Z,26.11
2022-07-29T15:08:41.461Z,25.85
2022-07-29T15:11:07.954Z,26.09
2022-07-29T15:13:34.842Z,26.06
2022-07-29T15:16:01.456Z,26.18
2022-07-29T15:18:27.965Z,26.08
2022-07-29T15:20:54.464Z,25.74
2022-07-29T15:23:21.046Z,25.61
2022-07-29T15:25:47.542Z,25.16
2022-07-29T15:28:14.042Z,25.08
2022-07-29T15:30:43.412Z,25.27
2022-07-29T15:33:10.368Z,25.52
2022-07-29T15:35:39.956Z,25.30
2022-07-29T15:38:06.865Z,25.38
2022-07-29T15:40:33.419Z,25.36
2022-07-29T15:43:06.373Z,25.35
2022-07-29T15:45:40.639Z,25.20
2022-07-29T15:48:08.117Z,25.09
2022-07-29T15:50:34.814Z,25.29
2022-07-29T15:53:01.420Z,25.32
2022-07-29T15:55:27.956Z,25.32
2022-07-29T15:57:58.573Z,25.10
2022-07-29T16:00:27.103Z,25.10
2022-07-29T16:02:53.604Z,25.29
2022-07-29T16:05:20.123Z,25.33
2022-07-29T16:07:46.656Z,25.31
2022-07-29T16:10:13.206Z,25.23
2022-07-29T16:12:39.713Z,25.25
2022-07-29T16:15:09.882Z,25.22
2022-07-29T16:17:37.720Z,25.16
2022-07-29T16:20:05.720Z,25.01
2022-07-29T16:22:32.266Z,25.00
2022-07-29T16:24:58.774Z,24.90
2022-07-29T16:27:37.459Z,24.83
2022-07-29T16:30:06.131Z,24.81
2022-07-29T16:32:32.641Z,24.82
2022-07-29T16:34:59.164Z,24.72
2022-07-29T16:37:25.865Z,24.76
2022-07-29T16:39:55.412Z,24.96
2022-07-29T16:42:44.211Z,24.96
2022-07-29T16:45:09.005Z,24.82
2022-07-29T16:47:36.089Z,24.76
2022-07-29T16:50:02.602Z,24.68
2022-07-29T16:52:29.144Z,24.52
2022-07-29T16:54:55.669Z,24.71
2022-07-29T16:57:22.233Z,24.57
2022-07-29T16:59:50.948Z,24.49
2022-07-29T17:02:17.627Z,24.45
2022-07-29T17:04:44.191Z,24.45
2022-07-29T17:07:10.698Z,24.42
2022-07-29T17:09:37.316Z,24.49
2022-07-29T17:12:04.069Z,24.54
2022-07-29T17:14:31.105Z,24.54
2022-07-29T17:17:00.460Z,24.50
2022-07-29T17:19:28.979Z,24.42
2022-07-29T17:22:02.346Z,24.37
2022-07-29T17:24:33.544Z,24.26
2022-07-29T17:27:00.367Z,24.12
2022-07-29T17:29:27.145Z,24.01
2022-07-29T17:31:53.678Z,23.95
2022-07-29T17:34:20.227Z,23.91
2022-07-29T17:36:46.853Z,23.76
2022-07-29T17:39:13.411Z,23.73
2022-07-29T17:41:44.790Z,23.72
2022-07-29T17:44:11.282Z,23.59
2022-07-29T17:46:37.990Z,23.58
2022-07-29T17:49:04.745Z,23.54
2022-07-29T17:51:31.294Z,23.46
2022-07-29T17:53:58.289Z,23.53
2022-07-29T17:56:24.981Z,23.49
2022-07-29T17:58:51.574Z,23.28
2022-07-29T18:01:18.229Z,23.31
2022-07-29T18:03:44.762Z,23.03
2022-07-29T18:06:11.271Z,22.97
2022-07-29T18:08:38.900Z,22.84
2022-07-29T18:11:06.350Z,22.84
2022-07-29T18:13:32.937Z,22.97
2022-07-29T18:16:00.623Z,23.02
2022-07-29T18:18:27.432Z,23.18
2022-07-29T18:20:54.003Z,23.09
2022-07-29T18:23:20.515Z,23.01
2022-07-29T18:25:47.058Z,22.94
2022-07-29T18:28:13.590Z,22.76
2022-07-29T18:30:40.105Z,22.57
2022-07-29T18:33:23.942Z,22.41
2022-07-29T18:35:51.616Z,22.28
2022-07-29T18:38:18.157Z,22.08
2022-07-29T18:40:45.788Z,22.02
2022-07-29T18:43:12.711Z,21.97
2022-07-29T18:45:39.494Z,21.90
2022-07-29T18:48:08.360Z,21.96
2022-07-29T18:50:39.573Z,21.85
2022-07-29T18:53:06.090Z,21.75
2022-07-29T18:55:32.896Z,21.67
2022-07-29T18:57:59.580Z,21.56
2022-07-29T19:00:26.207Z,21.52
2022-07-29T19:02:53.063Z,21.39
2022-07-29T19:05:19.796Z,21.42
2022-07-29T19:07:46.305Z,21.25
2022-07-29T19:10:13.545Z,21.34
2022-07-29T19:12:40.090Z,21.06
2022-07-29T19:15:08.129Z,21.06
2022-07-29T19:20:01.292Z,20.98
2022-07-29T19:22:27.821Z,20.91
2022-07-29T19:24:54.345Z,20.77
2022-07-29T19:27:20.844Z,20.71
2022-07-29T19:29:47.823Z,20.52
2022-07-29T19:32:24.412Z,20.41
2022-07-29T19:35:10.198Z,20.20
2022-07-29T19:37:37.397Z,20.22
2022-07-29T19:40:04.961Z,20.19
2022-07-29T19:42:31.444Z,20.05
2022-07-29T19:44:58.102Z,20.03
2022-07-29T19:47:24.810Z,19.98
2022-07-29T19:49:51.568Z,19.80
2022-07-29T19:52:18.095Z,19.70
2022-07-29T19:54:44.765Z,19.70
2022-07-29T19:57:11.437Z,19.65
2022-07-29T19:59:37.963Z,19.55
2022-07-29T20:02:04.900Z,19.52
2022-07-29T20:04:31.950Z,19.41
2022-07-29T20:07:01.627Z,19.47
2022-07-29T20:09:28.651Z,19.45
2022-07-29T20:11:56.277Z,19.44
2022-07-29T20:14:23.591Z,19.46
2022-07-29T20:16:54.406Z,19.31
2022-07-29T20:19:21.026Z,19.26
2022-07-29T20:21:47.672Z,19.11
2022-07-29T20:24:14.465Z,19.11
2022-07-29T20:26:41.128Z,19.28
2022-07-29T20:29:07.717Z,19.30
2022-07-29T20:31:34.251Z,19.15
2022-07-29T20:34:00.884Z,19.17
2022-07-29T20:36:28.113Z,19.18
2022-07-29T20:38:55.130Z,19.24
2022-07-29T20:41:21.741Z,19.21
2022-07-29T20:43:51.358Z,19.21
2022-07-29T20:46:18.296Z,19.22
2022-07-29T20:48:45.357Z,19.09
2022-07-29T20:51:11.990Z,19.04
2022-07-29T20:53:39.889Z,18.97
2022-07-29T20:56:06.700Z,18.89
2022-07-29T20:58:34.308Z,18.88
2022-07-29T21:01:01.054Z,18.90
2022-07-29T21:03:27.695Z,18.91
2022-07-29T21:05:54.237Z,18.89
2022-07-29T21:08:21.155Z,18.91
2022-07-29T21:10:47.825Z,18.70
2022-07-29T21:13:14.506Z,18.49
2022-07-29T21:15:44.603Z,18.29
2022-07-29T21:18:26.774Z,18.48
2022-07-29T21:21:02.482Z,18.50
2022-07-29T21:23:30.000Z,18.46
2022-07-29T21:25:56.616Z,18.51
2022-07-29T21:28:41.407Z,18.42
2022-07-29T21:31:12.534Z,18.33
2022-07-29T21:33:43.696Z,18.32
2022-07-29T21:36:45.414Z,18.16
2022-07-29T21:38:57.866Z,18.02
2022-07-29T21:41:24.380Z,17.93
2022-07-29T21:43:50.884Z,17.86
2022-07-29T21:46:19.075Z,17.85
2022-07-29T21:48:45.657Z,17.89
2022-07-29T21:51:12.192Z,18.02
2022-07-29T21:53:38.857Z,17.47
2022-07-29T21:56:06.564Z,17.39
2022-07-29T21:58:36.822Z,17.44
2022-07-29T22:01:03.384Z,17.19
2022-07-29T22:03:29.909Z,17.21
2022-07-29T22:05:56.614Z,17.17
2022-07-29T22:08:23.130Z,16.87
2022-07-29T22:10:49.686Z,16.81
2022-07-29T22:13:16.607Z,16.76
2022-07-29T22:15:46.909Z,16.58
2022-07-29T22:18:13.715Z,16.54
2022-07-29T22:20:49.563Z,16.50
2022-07-29T22:23:16.062Z,16.50
2022-07-29T22:25:42.582Z,16.34
2022-07-29T22:28:09.096Z,16.21
2022-07-29T22:30:35.667Z,16.31
2022-07-29T22:33:02.186Z,16.12
2022-07-29T22:35:28.795Z,16.09
2022-07-29T22:37:55.290Z,16.36
2022-07-29T22:40:21.782Z,16.15
2022-07-29T22:42:48.387Z,16.19
2022-07-29T22:45:14.906Z,16.17
2022-07-29T22:47:48.256Z,16.12
2022-07-29T22:50:15.543Z,16.16
2022-07-29T22:52:42.059Z,16.04
2022-07-29T22:55:08.769Z,16.03
2022-07-29T22:57:35.324Z,15.94
2022-07-29T23:00:02.412Z,16.07
2022-07-29T23:02:29.136Z,16.08
2022-07-29T23:04:55.688Z,16.25
2022-07-29T23:07:22.258Z,16.20
2022-07-29T23:09:48.803Z,16.23
2022-07-29T23:12:15.322Z,15.97
2022-07-29T23:14:41.945Z,15.85
2022-07-29T23:17:08.531Z,15.88
2022-07-29T23:19:35.117Z,15.88
2022-07-29T23:22:01.693Z,15.72
2022-07-29T23:24:28.189Z,15.71
2022-07-29T23:26:55.017Z,15.78
2022-07-29T23:29:21.570Z,15.69
2022-07-29T23:31:48.510Z,15.67
2022-07-29T23:34:15.086Z,15.64
2022-07-29T23:36:42.304Z,15.43
2022-07-29T23:39:13.067Z,15.45
2022-07-29T23:41:40.156Z,15.46
2022-07-29T23:44:06.652Z,15.38
2022-07-29T23:46:33.518Z,15.49
2022-07-29T23:49:00.193Z,15.51
2022-07-29T23:51:28.968Z,15.57
2022-07-29T23:53:55.714Z,15.59
2022-07-29T23:56:22.214Z,15.64
2022-07-29T23:58:48.988Z,15.63
